EFMA/MHQ METAR and TAF weather

Enter ICAO airport designator
Station Type Date Time Source
EFMA METAR 2019/02/23 03:20 UTC NOAA

EFMA 230320Z AUTO 26007KT 210V300 9999 -SHRA FEW014 BKN072 01/M02 Q1032


Station Type Date Time Source
EFMA Decoded METAR 2019/02/23 03:20 UTC NOAA

Mariehamn / Aland Island, Finland (EFMA) 60-07N 019-54E
Feb 22, 2019 - 10:20 PM EST / 2019.02.23 0320 UTC
Wind: from the W (260 degrees) at 8 MPH (7 KT) (direction variable):0
Visibility: greater than 7 mile(s):0
Sky conditions: mostly cloudy
Weather: light rain showers
Temperature: 33 F (1 C)
Windchill: 26 F (-3 C):1
Dew Point: 28 F (-2 C)
Relative Humidity: 80%
Pressure (altimeter): 30.47 in. Hg (1032 hPa)
ob: EFMA 230320Z AUTO 26007KT 210V300 9999 -SHRA FEW014 BKN072 01/M02 Q1032
cycle: 3

Station Type Date Time Source
EFMA TAF 2014/05/01 21:18 UTC NOAA

TAF TAF EFMA 302037Z 3021/0106 08008KT CAVOK
TEMPO 3023/0101 02010KT 6000 RASN
BECMG 0101/0103 01012KT 4000 RASN BKN010 OVC025


Example: see airport list